sensor_id;sensor_type;location;lat;lon;timestamp;P1;durP1;ratioP1;P2;durP2;ratioP2
41556;SDS011;27720;51.992;5.890;2024-02-14T09:47:59;6.40;;;3.33;;
41556;SDS011;27720;51.992;5.890;2024-02-14T09:50:26;10.30;;;5.85;;
41556;SDS011;27720;51.992;5.890;2024-02-14T09:52:53;8.98;;;4.43;;
41556;SDS011;27720;51.992;5.890;2024-02-14T09:55:20;8.93;;;4.63;;
41556;SDS011;27720;51.992;5.890;2024-02-14T09:57:47;12.40;;;5.07;;
41556;SDS011;27720;51.992;5.890;2024-02-14T10:00:14;16.67;;;5.18;;
41556;SDS011;27720;51.992;5.890;2024-02-14T10:02:40;10.48;;;5.65;;
41556;SDS011;27720;51.992;5.890;2024-02-14T10:05:07;11.02;;;5.07;;
41556;SDS011;27720;51.992;5.890;2024-02-14T10:07:40;10.80;;;5.25;;
41556;SDS011;27720;51.992;5.890;2024-02-14T10:10:07;12.63;;;5.00;;
41556;SDS011;27720;51.992;5.890;2024-02-14T10:12:32;10.02;;;5.40;;
41556;SDS011;27720;51.992;5.890;2024-02-14T10:14:58;12.57;;;4.88;;
41556;SDS011;27720;51.992;5.890;2024-02-14T10:17:24;10.65;;;5.05;;
41556;SDS011;27720;51.992;5.890;2024-02-14T10:19:57;12.85;;;5.35;;
41556;SDS011;27720;51.992;5.890;2024-02-14T10:22:24;12.45;;;5.55;;
41556;SDS011;27720;51.992;5.890;2024-02-14T10:24:57;8.73;;;5.20;;
41556;SDS011;27720;51.992;5.890;2024-02-14T10:27:22;9.73;;;4.93;;
41556;SDS011;27720;51.992;5.890;2024-02-14T10:29:48;18.15;;;6.47;;
41556;SDS011;27720;51.992;5.890;2024-02-14T10:32:14;12.32;;;5.20;;
41556;SDS011;27720;51.992;5.890;2024-02-14T10:34:41;14.45;;;5.43;;
41556;SDS011;27720;51.992;5.890;2024-02-14T10:37:10;14.50;;;5.43;;
41556;SDS011;27720;51.992;5.890;2024-02-14T10:39:41;11.77;;;4.45;;
41556;SDS011;27720;51.992;5.890;2024-02-14T10:42:07;10.60;;;4.70;;
41556;SDS011;27720;51.992;5.890;2024-02-14T10:44:34;11.75;;;5.65;;
41556;SDS011;27720;51.992;5.890;2024-02-14T10:47:00;11.88;;;5.32;;
41556;SDS011;27720;51.992;5.890;2024-02-14T10:49:32;11.60;;;4.88;;
41556;SDS011;27720;51.992;5.890;2024-02-14T10:51:59;10.38;;;4.70;;
41556;SDS011;27720;51.992;5.890;2024-02-14T10:54:30;12.10;;;5.68;;
41556;SDS011;27720;51.992;5.890;2024-02-14T10:56:57;9.50;;;4.82;;
41556;SDS011;27720;51.992;5.890;2024-02-14T10:59:25;8.57;;;4.03;;
41556;SDS011;27720;51.992;5.890;2024-02-14T11:01:51;11.90;;;4.80;;
41556;SDS011;27720;51.992;5.890;2024-02-14T11:04:18;12.38;;;4.93;;
41556;SDS011;27720;51.992;5.890;2024-02-14T11:06:45;13.18;;;5.55;;
41556;SDS011;27720;51.992;5.890;2024-02-14T11:09:11;9.15;;;4.30;;
41556;SDS011;27720;51.992;5.890;2024-02-14T11:11:40;12.93;;;4.32;;
41556;SDS011;27720;51.992;5.890;2024-02-14T11:14:09;11.00;;;5.22;;
41556;SDS011;27720;51.992;5.890;2024-02-14T11:16:37;9.93;;;5.10;;
41556;SDS011;27720;51.992;5.890;2024-02-14T11:21:40;12.68;;;5.85;;
41556;SDS011;27720;51.992;5.890;2024-02-14T11:24:11;12.98;;;5.25;;
41556;SDS011;27720;51.992;5.890;2024-02-14T11:26:45;11.02;;;5.38;;
41556;SDS011;27720;51.992;5.890;2024-02-14T11:29:18;11.63;;;4.60;;
41556;SDS011;27720;51.992;5.890;2024-02-14T11:31:44;6.38;;;3.60;;
41556;SDS011;27720;51.992;5.890;2024-02-14T11:34:14;11.93;;;4.05;;
41556;SDS011;27720;51.992;5.890;2024-02-14T11:36:41;7.45;;;3.95;;
41556;SDS011;27720;51.992;5.890;2024-02-14T11:39:07;13.10;;;4.28;;
41556;SDS011;27720;51.992;5.890;2024-02-14T11:41:33;12.90;;;5.10;;
41556;SDS011;27720;51.992;5.890;2024-02-14T11:44:03;14.35;;;4.70;;
41556;SDS011;27720;51.992;5.890;2024-02-14T11:46:36;10.43;;;4.28;;
41556;SDS011;27720;51.992;5.890;2024-02-14T11:49:03;9.98;;;4.05;;
41556;SDS011;27720;51.992;5.890;2024-02-14T11:51:30;6.38;;;3.08;;
41556;SDS011;27720;51.992;5.890;2024-02-14T11:53:57;6.43;;;3.17;;
41556;SDS011;27720;51.992;5.890;2024-02-14T11:56:34;12.18;;;3.58;;
41556;SDS011;27720;51.992;5.890;2024-02-14T11:59:01;9.35;;;3.78;;
41556;SDS011;27720;51.992;5.890;2024-02-14T12:01:29;8.50;;;3.72;;
41556;SDS011;27720;51.992;5.890;2024-02-14T12:03:57;7.18;;;4.00;;
41556;SDS011;27720;51.992;5.890;2024-02-14T12:06:24;13.05;;;4.63;;
41556;SDS011;27720;51.992;5.890;2024-02-14T12:08:49;7.55;;;4.03;;
41556;SDS011;27720;51.992;5.890;2024-02-14T12:11:16;7.38;;;3.10;;
41556;SDS011;27720;51.992;5.890;2024-02-14T12:13:42;6.82;;;3.42;;
41556;SDS011;27720;51.992;5.890;2024-02-14T12:16:11;9.40;;;3.35;;
41556;SDS011;27720;51.992;5.890;2024-02-14T12:18:37;7.43;;;3.78;;
41556;SDS011;27720;51.992;5.890;2024-02-14T12:21:05;12.68;;;4.03;;
41556;SDS011;27720;51.992;5.890;2024-02-14T12:23:34;7.07;;;3.17;;
41556;SDS011;27720;51.992;5.890;2024-02-14T12:26:01;7.20;;;3.58;;
41556;SDS011;27720;51.992;5.890;2024-02-14T12:28:28;6.88;;;3.50;;
41556;SDS011;27720;51.992;5.890;2024-02-14T12:30:57;8.38;;;3.95;;
41556;SDS011;27720;51.992;5.890;2024-02-14T12:33:24;7.28;;;3.33;;
41556;SDS011;27720;51.992;5.890;2024-02-14T12:35:51;10.23;;;3.20;;
41556;SDS011;27720;51.992;5.890;2024-02-14T12:38:19;8.30;;;3.80;;
41556;SDS011;27720;51.992;5.890;2024-02-14T12:40:45;8.18;;;3.92;;
41556;SDS011;27720;51.992;5.890;2024-02-14T12:43:12;6.47;;;3.17;;
41556;SDS011;27720;51.992;5.890;2024-02-14T12:45:39;6.45;;;3.22;;
41556;SDS011;27720;51.992;5.890;2024-02-14T12:48:06;6.85;;;2.95;;
41556;SDS011;27720;51.992;5.890;2024-02-14T12:50:35;5.72;;;2.80;;
41556;SDS011;27720;51.992;5.890;2024-02-14T12:53:04;5.57;;;3.05;;
41556;SDS011;27720;51.992;5.890;2024-02-14T12:55:32;6.88;;;2.97;;
41556;SDS011;27720;51.992;5.890;2024-02-14T12:57:57;5.40;;;2.78;;
41556;SDS011;27720;51.992;5.890;2024-02-14T13:00:24;4.57;;;1.92;;
41556;SDS011;27720;51.992;5.890;2024-02-14T13:02:50;4.05;;;2.17;;
41556;SDS011;27720;51.992;5.890;2024-02-14T13:05:16;6.05;;;3.00;;
41556;SDS011;27720;51.992;5.890;2024-02-14T13:07:43;5.13;;;2.83;;
41556;SDS011;27720;51.992;5.890;2024-02-14T13:10:09;5.22;;;2.10;;
41556;SDS011;27720;51.992;5.890;2024-02-14T13:12:35;5.63;;;2.47;;
41556;SDS011;27720;51.992;5.890;2024-02-14T13:15:02;3.25;;;1.80;;
41556;SDS011;27720;51.992;5.890;2024-02-14T13:17:28;4.57;;;2.20;;
41556;SDS011;27720;51.992;5.890;2024-02-14T13:19:54;2.90;;;1.70;;
41556;SDS011;27720;51.992;5.890;2024-02-14T13:22:20;3.35;;;1.85;;
41556;SDS011;27720;51.992;5.890;2024-02-14T13:24:46;3.03;;;1.70;;
41556;SDS011;27720;51.992;5.890;2024-02-14T13:27:11;2.97;;;1.52;;
41556;SDS011;27720;51.992;5.890;2024-02-14T13:29:38;2.95;;;1.75;;
41556;SDS011;27720;51.992;5.890;2024-02-14T13:32:03;4.35;;;1.98;;
41556;SDS011;27720;51.992;5.890;2024-02-14T13:34:32;3.28;;;1.88;;
41556;SDS011;27720;51.992;5.890;2024-02-14T13:36:58;3.35;;;1.73;;
41556;SDS011;27720;51.992;5.890;2024-02-14T13:39:25;3.47;;;1.70;;
41556;SDS011;27720;51.992;5.890;2024-02-14T13:41:50;4.05;;;1.60;;
41556;SDS011;27720;51.992;5.890;2024-02-14T13:44:17;3.80;;;1.80;;
41556;SDS011;27720;51.992;5.890;2024-02-14T13:46:43;6.20;;;2.33;;
41556;SDS011;27720;51.992;5.890;2024-02-14T13:49:10;3.08;;;1.80;;
41556;SDS011;27720;51.992;5.890;2024-02-14T13:51:37;4.50;;;1.55;;
41556;SDS011;27720;51.992;5.890;2024-02-14T13:54:03;2.90;;;1.63;;
41556;SDS011;27720;51.992;5.890;2024-02-14T13:56:29;5.00;;;2.25;;
41556;SDS011;27720;51.992;5.890;2024-02-14T13:58:55;4.13;;;2.00;;
41556;SDS011;27720;51.992;5.890;2024-02-14T14:01:20;3.78;;;1.75;;
41556;SDS011;27720;51.992;5.890;2024-02-14T14:03:46;3.63;;;1.83;;
41556;SDS011;27720;51.992;5.890;2024-02-14T14:06:15;5.90;;;2.53;;
41556;SDS011;27720;51.992;5.890;2024-02-14T14:08:41;4.45;;;2.60;;
41556;SDS011;27720;51.992;5.890;2024-02-14T14:11:07;7.15;;;1.95;;
41556;SDS011;27720;51.992;5.890;2024-02-14T14:13:33;4.53;;;2.10;;
41556;SDS011;27720;51.992;5.890;2024-02-14T14:15:59;3.92;;;2.22;;
41556;SDS011;27720;51.992;5.890;2024-02-14T14:18:25;4.43;;;2.30;;
41556;SDS011;27720;51.992;5.890;2024-02-14T14:20:51;6.10;;;2.90;;
41556;SDS011;27720;51.992;5.890;2024-02-14T14:23:20;7.63;;;2.78;;
41556;SDS011;27720;51.992;5.890;2024-02-14T14:25:45;8.07;;;2.83;;
41556;SDS011;27720;51.992;5.890;2024-02-14T14:28:11;3.45;;;1.58;;
41556;SDS011;27720;51.992;5.890;2024-02-14T14:30:37;8.02;;;2.97;;
41556;SDS011;27720;51.992;5.890;2024-02-14T14:33:03;6.28;;;2.95;;
41556;SDS011;27720;51.992;5.890;2024-02-14T14:35:30;6.97;;;2.92;;
41556;SDS011;27720;51.992;5.890;2024-02-14T14:38:02;7.40;;;3.00;;
41556;SDS011;27720;51.992;5.890;2024-02-14T14:40:28;4.70;;;2.60;;
41556;SDS011;27720;51.992;5.890;2024-02-14T14:42:54;6.32;;;3.53;;
41556;SDS011;27720;51.992;5.890;2024-02-14T14:45:20;8.45;;;3.80;;
41556;SDS011;27720;51.992;5.890;2024-02-14T14:47:45;6.45;;;3.72;;
41556;SDS011;27720;51.992;5.890;2024-02-14T14:50:11;7.72;;;3.47;;
41556;SDS011;27720;51.992;5.890;2024-02-14T14:52:38;8.40;;;4.10;;
41556;SDS011;27720;51.992;5.890;2024-02-14T14:55:04;7.68;;;3.95;;
41556;SDS011;27720;51.992;5.890;2024-02-14T14:57:31;6.82;;;3.60;;
41556;SDS011;27720;51.992;5.890;2024-02-14T14:59:57;7.15;;;3.88;;
41556;SDS011;27720;51.992;5.890;2024-02-14T15:02:23;7.50;;;3.22;;
41556;SDS011;27720;51.992;5.890;2024-02-14T15:04:48;6.38;;;2.72;;
41556;SDS011;27720;51.992;5.890;2024-02-14T15:07:16;5.03;;;2.80;;
41556;SDS011;27720;51.992;5.890;2024-02-14T15:09:45;8.57;;;3.65;;
41556;SDS011;27720;51.992;5.890;2024-02-14T15:12:11;5.43;;;2.80;;
41556;SDS011;27720;51.992;5.890;2024-02-14T15:14:37;4.60;;;2.40;;
41556;SDS011;27720;51.992;5.890;2024-02-14T15:17:03;4.05;;;1.98;;
41556;SDS011;27720;51.992;5.890;2024-02-14T15:19:30;7.13;;;2.95;;
41556;SDS011;27720;51.992;5.890;2024-02-14T15:21:56;11.93;;;3.75;;
41556;SDS011;27720;51.992;5.890;2024-02-14T15:24:23;8.25;;;3.00;;
41556;SDS011;27720;51.992;5.890;2024-02-14T15:26:49;7.57;;;3.30;;
41556;SDS011;27720;51.992;5.890;2024-02-14T15:29:18;7.72;;;3.50;;
41556;SDS011;27720;51.992;5.890;2024-02-14T15:32:02;6.40;;;2.78;;
41556;SDS011;27720;51.992;5.890;2024-02-14T15:34:47;4.95;;;2.42;;
41556;SDS011;27720;51.992;5.890;2024-02-14T15:37:12;12.07;;;2.60;;
41556;SDS011;27720;51.992;5.890;2024-02-14T15:39:39;6.97;;;2.92;;
41556;SDS011;27720;51.992;5.890;2024-02-14T15:42:05;5.00;;;2.45;;
41556;SDS011;27720;51.992;5.890;2024-02-14T15:44:31;4.80;;;2.78;;
41556;SDS011;27720;51.992;5.890;2024-02-14T15:46:56;5.60;;;2.47;;
41556;SDS011;27720;51.992;5.890;2024-02-14T15:49:22;4.78;;;2.63;;
41556;SDS011;27720;51.992;5.890;2024-02-14T15:51:48;4.95;;;2.20;;
41556;SDS011;27720;51.992;5.890;2024-02-14T15:54:18;4.13;;;1.90;;
41556;SDS011;27720;51.992;5.890;2024-02-14T15:56:43;5.05;;;2.28;;
41556;SDS011;27720;51.992;5.890;2024-02-14T15:59:09;5.03;;;2.78;;
41556;SDS011;27720;51.992;5.890;2024-02-14T16:01:37;4.85;;;2.55;;
41556;SDS011;27720;51.992;5.890;2024-02-14T16:04:03;4.60;;;2.20;;
41556;SDS011;27720;51.992;5.890;2024-02-14T16:06:30;7.75;;;2.83;;
41556;SDS011;27720;51.992;5.890;2024-02-14T16:09:00;6.03;;;3.38;;
41556;SDS011;27720;51.992;5.890;2024-02-14T16:11:28;6.38;;;2.72;;
41556;SDS011;27720;51.992;5.890;2024-02-14T16:13:54;6.30;;;2.92;;
41556;SDS011;27720;51.992;5.890;2024-02-14T16:16:20;6.95;;;2.55;;
41556;SDS011;27720;51.992;5.890;2024-02-14T16:18:45;4.55;;;2.08;;
41556;SDS011;27720;51.992;5.890;2024-02-14T16:21:11;7.07;;;2.97;;
41556;SDS011;27720;51.992;5.890;2024-02-14T16:23:37;5.00;;;2.70;;
41556;SDS011;27720;51.992;5.890;2024-02-14T16:26:02;9.23;;;3.35;;
41556;SDS011;27720;51.992;5.890;2024-02-14T16:28:29;5.40;;;2.63;;
41556;SDS011;27720;51.992;5.890;2024-02-14T16:30:55;10.60;;;2.70;;
41556;SDS011;27720;51.992;5.890;2024-02-14T16:33:20;6.43;;;2.83;;
41556;SDS011;27720;51.992;5.890;2024-02-14T16:35:46;6.63;;;3.03;;
41556;SDS011;27720;51.992;5.890;2024-02-14T16:38:11;4.03;;;1.83;;
41556;SDS011;27720;51.992;5.890;2024-02-14T16:40:37;7.93;;;3.85;;
41556;SDS011;27720;51.992;5.890;2024-02-14T16:43:04;8.80;;;3.47;;
41556;SDS011;27720;51.992;5.890;2024-02-14T16:45:30;7.05;;;3.35;;
41556;SDS011;27720;51.992;5.890;2024-02-14T16:47:57;8.80;;;3.55;;
41556;SDS011;27720;51.992;5.890;2024-02-14T16:50:23;6.90;;;3.63;;
41556;SDS011;27720;51.992;5.890;2024-02-14T16:52:50;5.85;;;3.42;;
41556;SDS011;27720;51.992;5.890;2024-02-14T16:55:16;7.22;;;3.85;;
41556;SDS011;27720;51.992;5.890;2024-02-14T16:57:41;6.13;;;3.55;;
41556;SDS011;27720;51.992;5.890;2024-02-14T17:00:07;7.68;;;3.72;;
41556;SDS011;27720;51.992;5.890;2024-02-14T17:02:34;8.07;;;3.58;;
41556;SDS011;27720;51.992;5.890;2024-02-14T17:05:00;8.23;;;4.50;;
41556;SDS011;27720;51.992;5.890;2024-02-14T17:07:26;7.90;;;4.00;;
41556;SDS011;27720;51.992;5.890;2024-02-14T17:09:51;8.63;;;3.42;;
41556;SDS011;27720;51.992;5.890;2024-02-14T17:12:19;10.57;;;4.60;;
41556;SDS011;27720;51.992;5.890;2024-02-14T17:14:44;7.85;;;5.03;;
41556;SDS011;27720;51.992;5.890;2024-02-14T17:17:10;8.38;;;4.07;;
41556;SDS011;27720;51.992;5.890;2024-02-14T17:19:35;9.05;;;4.30;;
41556;SDS011;27720;51.992;5.890;2024-02-14T17:22:01;9.20;;;5.07;;
41556;SDS011;27720;51.992;5.890;2024-02-14T17:24:30;10.95;;;5.18;;
41556;SDS011;27720;51.992;5.890;2024-02-14T17:26:55;9.82;;;4.97;;
41556;SDS011;27720;51.992;5.890;2024-02-14T17:29:21;10.15;;;4.78;;
41556;SDS011;27720;51.992;5.890;2024-02-14T17:31:47;8.55;;;4.90;;
41556;SDS011;27720;51.992;5.890;2024-02-14T17:34:13;12.73;;;5.20;;
41556;SDS011;27720;51.992;5.890;2024-02-14T17:36:39;10.05;;;4.80;;
41556;SDS011;27720;51.992;5.890;2024-02-14T17:39:05;11.73;;;5.78;;
41556;SDS011;27720;51.992;5.890;2024-02-14T17:41:31;8.75;;;4.75;;
41556;SDS011;27720;51.992;5.890;2024-02-14T17:44:00;7.57;;;3.90;;
41556;SDS011;27720;51.992;5.890;2024-02-14T17:46:30;8.45;;;4.32;;
41556;SDS011;27720;51.992;5.890;2024-02-14T17:48:56;9.70;;;5.55;;
41556;SDS011;27720;51.992;5.890;2024-02-14T17:51:24;12.40;;;5.43;;
41556;SDS011;27720;51.992;5.890;2024-02-14T17:53:51;12.10;;;6.03;;
41556;SDS011;27720;51.992;5.890;2024-02-14T17:56:17;17.08;;;6.07;;
41556;SDS011;27720;51.992;5.890;2024-02-14T17:58:42;12.18;;;6.15;;
41556;SDS011;27720;51.992;5.890;2024-02-14T18:01:08;13.25;;;6.53;;
41556;SDS011;27720;51.992;5.890;2024-02-14T18:03:34;11.60;;;5.70;;
41556;SDS011;27720;51.992;5.890;2024-02-14T18:06:00;8.82;;;4.68;;
41556;SDS011;27720;51.992;5.890;2024-02-14T18:08:26;12.95;;;6.85;;
41556;SDS011;27720;51.992;5.890;2024-02-14T18:10:52;13.95;;;6.32;;
41556;SDS011;27720;51.992;5.890;2024-02-14T18:13:18;12.98;;;6.75;;
41556;SDS011;27720;51.992;5.890;2024-02-14T18:15:45;14.80;;;6.82;;
41556;SDS011;27720;51.992;5.890;2024-02-14T18:18:12;17.55;;;7.63;;
41556;SDS011;27720;51.992;5.890;2024-02-14T18:20:38;20.02;;;8.55;;
41556;SDS011;27720;51.992;5.890;2024-02-14T18:23:04;14.70;;;6.68;;
41556;SDS011;27720;51.992;5.890;2024-02-14T18:25:30;11.35;;;5.47;;
41556;SDS011;27720;51.992;5.890;2024-02-14T18:27:56;13.98;;;6.32;;
41556;SDS011;27720;51.992;5.890;2024-02-14T18:30:22;11.43;;;5.43;;
41556;SDS011;27720;51.992;5.890;2024-02-14T18:32:52;13.27;;;5.18;;
41556;SDS011;27720;51.992;5.890;2024-02-14T18:35:20;22.42;;;8.68;;
41556;SDS011;27720;51.992;5.890;2024-02-14T18:37:45;15.43;;;7.25;;
41556;SDS011;27720;51.992;5.890;2024-02-14T18:40:11;9.00;;;5.03;;
41556;SDS011;27720;51.992;5.890;2024-02-14T18:42:37;17.77;;;7.88;;
41556;SDS011;27720;51.992;5.890;2024-02-14T18:45:04;17.95;;;8.13;;
41556;SDS011;27720;51.992;5.890;2024-02-14T18:47:34;19.85;;;7.13;;
41556;SDS011;27720;51.992;5.890;2024-02-14T18:50:00;12.55;;;6.00;;
41556;SDS011;27720;51.992;5.890;2024-02-14T18:52:26;17.20;;;6.60;;
41556;SDS011;27720;51.992;5.890;2024-02-14T18:54:55;16.38;;;6.75;;
41556;SDS011;27720;51.992;5.890;2024-02-14T18:57:21;16.75;;;6.88;;
41556;SDS011;27720;51.992;5.890;2024-02-14T18:59:46;14.10;;;7.28;;
41556;SDS011;27720;51.992;5.890;2024-02-14T19:02:12;18.92;;;7.28;;
41556;SDS011;27720;51.992;5.890;2024-02-14T19:04:38;16.08;;;7.13;;
41556;SDS011;27720;51.992;5.890;2024-02-14T19:07:04;13.35;;;6.93;;
41556;SDS011;27720;51.992;5.890;2024-02-14T19:09:30;8.75;;;4.25;;
41556;SDS011;27720;51.992;5.890;2024-02-14T19:12:00;14.93;;;6.47;;
41556;SDS011;27720;51.992;5.890;2024-02-14T19:14:25;12.93;;;5.22;;
41556;SDS011;27720;51.992;5.890;2024-02-14T19:16:51;17.33;;;6.32;;
41556;SDS011;27720;51.992;5.890;2024-02-14T19:19:17;11.65;;;5.32;;
41556;SDS011;27720;51.992;5.890;2024-02-14T19:21:44;14.68;;;6.57;;
41556;SDS011;27720;51.992;5.890;2024-02-14T19:24:11;15.23;;;6.80;;
41556;SDS011;27720;51.992;5.890;2024-02-14T19:26:37;16.00;;;6.40;;
41556;SDS011;27720;51.992;5.890;2024-02-14T19:29:03;10.23;;;5.72;;
41556;SDS011;27720;51.992;5.890;2024-02-14T19:31:29;12.35;;;5.25;;
41556;SDS011;27720;51.992;5.890;2024-02-14T19:33:55;11.93;;;6.05;;
41556;SDS011;27720;51.992;5.890;2024-02-14T19:36:21;10.07;;;4.60;;
41556;SDS011;27720;51.992;5.890;2024-02-14T19:38:49;13.00;;;7.13;;
41556;SDS011;27720;51.992;5.890;2024-02-14T19:41:15;11.27;;;6.13;;
41556;SDS011;27720;51.992;5.890;2024-02-14T19:43:41;15.57;;;6.22;;
41556;SDS011;27720;51.992;5.890;2024-02-14T19:46:07;11.07;;;4.95;;
41556;SDS011;27720;51.992;5.890;2024-02-14T19:48:32;15.23;;;7.38;;
41556;SDS011;27720;51.992;5.890;2024-02-14T19:50:59;15.70;;;6.63;;
41556;SDS011;27720;51.992;5.890;2024-02-14T19:53:27;11.35;;;5.15;;
41556;SDS011;27720;51.992;5.890;2024-02-14T19:55:53;12.88;;;5.78;;
41556;SDS011;27720;51.992;5.890;2024-02-14T19:58:19;13.52;;;6.22;;
41556;SDS011;27720;51.992;5.890;2024-02-14T20:00:45;18.13;;;6.80;;
41556;SDS011;27720;51.992;5.890;2024-02-14T20:03:11;16.55;;;6.07;;
41556;SDS011;27720;51.992;5.890;2024-02-14T20:05:37;17.05;;;7.45;;
41556;SDS011;27720;51.992;5.890;2024-02-14T20:08:04;19.35;;;7.53;;
41556;SDS011;27720;51.992;5.890;2024-02-14T20:10:31;14.38;;;6.30;;
41556;SDS011;27720;51.992;5.890;2024-02-14T20:12:57;14.30;;;6.70;;
41556;SDS011;27720;51.992;5.890;2024-02-14T20:15:23;13.48;;;6.43;;
41556;SDS011;27720;51.992;5.890;2024-02-14T20:17:49;11.43;;;6.13;;
41556;SDS011;27720;51.992;5.890;2024-02-14T20:20:16;13.63;;;6.95;;
41556;SDS011;27720;51.992;5.890;2024-02-14T20:22:42;16.55;;;7.05;;
41556;SDS011;27720;51.992;5.890;2024-02-14T20:25:08;17.02;;;6.65;;
41556;SDS011;27720;51.992;5.890;2024-02-14T20:27:36;19.80;;;8.23;;
41556;SDS011;27720;51.992;5.890;2024-02-14T20:30:03;14.55;;;5.90;;
41556;SDS011;27720;51.992;5.890;2024-02-14T20:32:32;17.98;;;8.02;;
41556;SDS011;27720;51.992;5.890;2024-02-14T20:34:58;12.50;;;6.13;;
41556;SDS011;27720;51.992;5.890;2024-02-14T20:37:24;21.55;;;8.60;;
41556;SDS011;27720;51.992;5.890;2024-02-14T20:39:50;15.00;;;6.57;;
41556;SDS011;27720;51.992;5.890;2024-02-14T20:42:16;16.55;;;7.38;;
41556;SDS011;27720;51.992;5.890;2024-02-14T20:44:42;16.85;;;7.65;;
41556;SDS011;27720;51.992;5.890;2024-02-14T20:47:07;18.35;;;7.85;;
41556;SDS011;27720;51.992;5.890;2024-02-14T20:49:33;22.83;;;8.23;;
41556;SDS011;27720;51.992;5.890;2024-02-14T20:52:01;19.15;;;8.48;;
41556;SDS011;27720;51.992;5.890;2024-02-14T20:54:29;15.05;;;7.00;;
41556;SDS011;27720;51.992;5.890;2024-02-14T20:56:54;15.98;;;7.63;;
41556;SDS011;27720;51.992;5.890;2024-02-14T20:59:21;13.93;;;6.78;;
41556;SDS011;27720;51.992;5.890;2024-02-14T21:01:46;14.32;;;8.05;;
41556;SDS011;27720;51.992;5.890;2024-02-14T21:04:12;12.60;;;6.55;;
41556;SDS011;27720;51.992;5.890;2024-02-14T21:06:38;16.45;;;8.13;;
41556;SDS011;27720;51.992;5.890;2024-02-14T21:09:03;14.60;;;8.05;;
41556;SDS011;27720;51.992;5.890;2024-02-14T21:11:29;17.63;;;7.85;;
41556;SDS011;27720;51.992;5.890;2024-02-14T21:13:54;16.77;;;8.30;;
41556;SDS011;27720;51.992;5.890;2024-02-14T21:16:20;18.58;;;7.97;;
41556;SDS011;27720;51.992;5.890;2024-02-14T21:18:46;14.52;;;7.53;;
41556;SDS011;27720;51.992;5.890;2024-02-14T21:21:12;21.05;;;8.73;;
41556;SDS011;27720;51.992;5.890;2024-02-14T21:23:39;14.90;;;7.43;;
41556;SDS011;27720;51.992;5.890;2024-02-14T21:26:05;18.40;;;7.15;;
41556;SDS011;27720;51.992;5.890;2024-02-14T21:28:31;20.67;;;8.10;;
41556;SDS011;27720;51.992;5.890;2024-02-14T21:30:57;19.20;;;8.23;;
41556;SDS011;27720;51.992;5.890;2024-02-14T21:33:24;26.10;;;9.50;;
41556;SDS011;27720;51.992;5.890;2024-02-14T21:35:51;18.42;;;8.20;;
41556;SDS011;27720;51.992;5.890;2024-02-14T21:38:21;18.85;;;9.55;;
41556;SDS011;27720;51.992;5.890;2024-02-14T21:40:48;16.25;;;7.95;;
41556;SDS011;27720;51.992;5.890;2024-02-14T21:43:15;20.13;;;8.13;;
41556;SDS011;27720;51.992;5.890;2024-02-14T21:45:41;19.52;;;8.02;;
41556;SDS011;27720;51.992;5.890;2024-02-14T21:48:07;18.25;;;8.60;;
41556;SDS011;27720;51.992;5.890;2024-02-14T21:50:34;19.00;;;8.90;;
41556;SDS011;27720;51.992;5.890;2024-02-14T21:52:59;14.30;;;7.35;;
41556;SDS011;27720;51.992;5.890;2024-02-14T21:55:25;15.85;;;7.53;;
41556;SDS011;27720;51.992;5.890;2024-02-14T21:57:51;17.73;;;7.47;;
41556;SDS011;27720;51.992;5.890;2024-02-14T22:00:17;17.45;;;7.38;;
41556;SDS011;27720;51.992;5.890;2024-02-14T22:02:42;23.23;;;10.30;;
41556;SDS011;27720;51.992;5.890;2024-02-14T22:05:10;19.45;;;8.75;;
41556;SDS011;27720;51.992;5.890;2024-02-14T22:07:36;16.00;;;7.63;;
41556;SDS011;27720;51.992;5.890;2024-02-14T22:10:02;13.38;;;5.63;;
41556;SDS011;27720;51.992;5.890;2024-02-14T22:12:32;21.67;;;9.10;;
41556;SDS011;27720;51.992;5.890;2024-02-14T22:14:58;22.10;;;8.30;;
41556;SDS011;27720;51.992;5.890;2024-02-14T22:17:24;18.73;;;10.05;;
41556;SDS011;27720;51.992;5.890;2024-02-14T22:19:49;19.90;;;8.02;;
41556;SDS011;27720;51.992;5.890;2024-02-14T22:22:15;17.30;;;8.02;;
41556;SDS011;27720;51.992;5.890;2024-02-14T22:24:46;19.08;;;8.40;;
41556;SDS011;27720;51.992;5.890;2024-02-14T22:27:12;16.83;;;7.25;;
41556;SDS011;27720;51.992;5.890;2024-02-14T22:29:37;17.63;;;8.38;;
41556;SDS011;27720;51.992;5.890;2024-02-14T22:32:05;17.63;;;8.57;;
41556;SDS011;27720;51.992;5.890;2024-02-14T22:34:32;18.05;;;7.97;;
41556;SDS011;27720;51.992;5.890;2024-02-14T22:36:57;15.95;;;6.60;;
41556;SDS011;27720;51.992;5.890;2024-02-14T22:39:23;15.02;;;6.82;;
41556;SDS011;27720;51.992;5.890;2024-02-14T22:41:49;15.68;;;7.57;;
41556;SDS011;27720;51.992;5.890;2024-02-14T22:44:14;14.25;;;6.53;;
41556;SDS011;27720;51.992;5.890;2024-02-14T22:46:40;14.48;;;6.95;;
41556;SDS011;27720;51.992;5.890;2024-02-14T22:49:07;12.93;;;6.50;;
41556;SDS011;27720;51.992;5.890;2024-02-14T22:51:36;15.15;;;6.90;;
41556;SDS011;27720;51.992;5.890;2024-02-14T22:54:02;14.43;;;7.13;;
41556;SDS011;27720;51.992;5.890;2024-02-14T22:56:29;13.38;;;6.57;;
41556;SDS011;27720;51.992;5.890;2024-02-14T22:58:55;19.98;;;8.32;;
41556;SDS011;27720;51.992;5.890;2024-02-14T23:01:21;15.15;;;6.82;;
41556;SDS011;27720;51.992;5.890;2024-02-14T23:03:47;16.70;;;7.10;;
41556;SDS011;27720;51.992;5.890;2024-02-14T23:06:13;15.77;;;7.72;;
41556;SDS011;27720;51.992;5.890;2024-02-14T23:08:39;16.13;;;6.78;;
41556;SDS011;27720;51.992;5.890;2024-02-14T23:11:05;12.68;;;5.45;;
41556;SDS011;27720;51.992;5.890;2024-02-14T23:13:31;15.93;;;6.15;;
41556;SDS011;27720;51.992;5.890;2024-02-14T23:15:57;13.80;;;6.43;;
41556;SDS011;27720;51.992;5.890;2024-02-14T23:18:24;15.32;;;6.28;;
41556;SDS011;27720;51.992;5.890;2024-02-14T23:20:56;13.90;;;6.03;;
41556;SDS011;27720;51.992;5.890;2024-02-14T23:23:22;11.05;;;5.38;;
41556;SDS011;27720;51.992;5.890;2024-02-14T23:25:50;12.57;;;5.00;;
41556;SDS011;27720;51.992;5.890;2024-02-14T23:28:16;12.98;;;5.75;;
41556;SDS011;27720;51.992;5.890;2024-02-14T23:30:42;16.77;;;6.53;;
41556;SDS011;27720;51.992;5.890;2024-02-14T23:33:10;10.15;;;5.38;;
41556;SDS011;27720;51.992;5.890;2024-02-14T23:35:38;16.08;;;6.65;;
41556;SDS011;27720;51.992;5.890;2024-02-14T23:38:05;11.23;;;5.03;;
41556;SDS011;27720;51.992;5.890;2024-02-14T23:40:33;13.82;;;6.13;;
41556;SDS011;27720;51.992;5.890;2024-02-14T23:42:59;11.02;;;5.13;;
41556;SDS011;27720;51.992;5.890;2024-02-14T23:45:29;13.48;;;5.47;;
41556;SDS011;27720;51.992;5.890;2024-02-14T23:47:55;14.60;;;6.68;;
41556;SDS011;27720;51.992;5.890;2024-02-14T23:50:26;14.75;;;6.72;;
41556;SDS011;27720;51.992;5.890;2024-02-14T23:52:55;11.70;;;5.57;;
41556;SDS011;27720;51.992;5.890;2024-02-14T23:55:24;14.38;;;6.18;;
41556;SDS011;27720;51.992;5.890;2024-02-14T23:57:50;9.73;;;5.38;;
